sensor_id;sensor_type;location;lat;lon;timestamp;temperature;humidity
43320;DHT22;28914;48.722;9.332;2023-05-24T00:00:12;18.20;65.20
43320;DHT22;28914;48.722;9.332;2023-05-24T00:05:32;18.20;65.20
43320;DHT22;28914;48.722;9.332;2023-05-24T00:10:51;18.20;65.20
43320;DHT22;28914;48.722;9.332;2023-05-24T00:16:10;18.10;65.10
43320;DHT22;28914;48.722;9.332;2023-05-24T00:21:29;18.10;65.00
43320;DHT22;28914;48.722;9.332;2023-05-24T00:26:49;18.10;65.00
43320;DHT22;28914;48.722;9.332;2023-05-24T00:32:08;18.10;65.20
43320;DHT22;28914;48.722;9.332;2023-05-24T00:37:28;18.10;65.10
43320;DHT22;28914;48.722;9.332;2023-05-24T00:42:47;18.10;65.00
43320;DHT22;28914;48.722;9.332;2023-05-24T00:48:07;18.10;66.00
43320;DHT22;28914;48.722;9.332;2023-05-24T00:53:26;18.10;65.00
43320;DHT22;28914;48.722;9.332;2023-05-24T00:58:46;18.10;65.10
43320;DHT22;28914;48.722;9.332;2023-05-24T01:04:05;18.10;64.30
43320;DHT22;28914;48.722;9.332;2023-05-24T01:09:32;18.10;63.80
43320;DHT22;28914;48.722;9.332;2023-05-24T01:15:10;18.10;62.60
43320;DHT22;28914;48.722;9.332;2023-05-24T01:20:33;18.00;62.30
43320;DHT22;28914;48.722;9.332;2023-05-24T01:31:28;17.80;62.60
43320;DHT22;28914;48.722;9.332;2023-05-24T01:36:47;17.80;62.60
43320;DHT22;28914;48.722;9.332;2023-05-24T01:53:19;17.70;62.50
43320;DHT22;28914;48.722;9.332;2023-05-24T01:58:42;17.70;62.10
43320;DHT22;28914;48.722;9.332;2023-05-24T02:04:02;17.60;62.00
43320;DHT22;28914;48.722;9.332;2023-05-24T02:09:21;17.50;61.90
43320;DHT22;28914;48.722;9.332;2023-05-24T02:14:40;17.50;62.00
43320;DHT22;28914;48.722;9.332;2023-05-24T02:20:01;17.40;62.10
43320;DHT22;28914;48.722;9.332;2023-05-24T02:25:21;17.30;62.20
43320;DHT22;28914;48.722;9.332;2023-05-24T02:30:40;17.30;62.40
43320;DHT22;28914;48.722;9.332;2023-05-24T02:36:02;17.30;62.50
43320;DHT22;28914;48.722;9.332;2023-05-24T02:41:22;17.20;62.40
43320;DHT22;28914;48.722;9.332;2023-05-24T02:46:41;17.20;62.50
43320;DHT22;28914;48.722;9.332;2023-05-24T02:52:00;17.10;62.50
43320;DHT22;28914;48.722;9.332;2023-05-24T02:57:19;17.00;62.60
43320;DHT22;28914;48.722;9.332;2023-05-24T03:02:40;16.90;62.70
43320;DHT22;28914;48.722;9.332;2023-05-24T03:07:59;16.90;62.80
43320;DHT22;28914;48.722;9.332;2023-05-24T03:13:18;16.90;63.00
43320;DHT22;28914;48.722;9.332;2023-05-24T03:18:37;16.80;63.10
43320;DHT22;28914;48.722;9.332;2023-05-24T03:23:57;16.80;63.10
43320;DHT22;28914;48.722;9.332;2023-05-24T03:29:16;16.70;63.30
43320;DHT22;28914;48.722;9.332;2023-05-24T03:34:35;16.60;63.30
43320;DHT22;28914;48.722;9.332;2023-05-24T03:39:54;16.50;63.50
43320;DHT22;28914;48.722;9.332;2023-05-24T03:45:13;16.50;63.80
43320;DHT22;28914;48.722;9.332;2023-05-24T03:50:33;16.40;63.80
43320;DHT22;28914;48.722;9.332;2023-05-24T03:55:52;16.30;64.00
43320;DHT22;28914;48.722;9.332;2023-05-24T04:01:12;16.30;64.10
43320;DHT22;28914;48.722;9.332;2023-05-24T04:06:31;16.30;64.20
43320;DHT22;28914;48.722;9.332;2023-05-24T04:11:50;16.30;64.20
43320;DHT22;28914;48.722;9.332;2023-05-24T04:17:09;16.30;64.50
43320;DHT22;28914;48.722;9.332;2023-05-24T04:22:29;16.30;64.50
43320;DHT22;28914;48.722;9.332;2023-05-24T04:27:48;16.30;64.40
43320;DHT22;28914;48.722;9.332;2023-05-24T04:33:08;16.30;64.30
43320;DHT22;28914;48.722;9.332;2023-05-24T04:38:28;16.30;64.60
43320;DHT22;28914;48.722;9.332;2023-05-24T04:43:52;16.30;64.70
43320;DHT22;28914;48.722;9.332;2023-05-24T04:49:11;16.30;64.70
43320;DHT22;28914;48.722;9.332;2023-05-24T04:54:31;16.40;64.60
43320;DHT22;28914;48.722;9.332;2023-05-24T04:59:50;16.40;64.80
43320;DHT22;28914;48.722;9.332;2023-05-24T05:05:09;16.50;65.60
43320;DHT22;28914;48.722;9.332;2023-05-24T05:10:28;16.50;66.30
43320;DHT22;28914;48.722;9.332;2023-05-24T05:15:48;16.60;65.20
43320;DHT22;28914;48.722;9.332;2023-05-24T05:21:07;16.60;65.10
43320;DHT22;28914;48.722;9.332;2023-05-24T05:26:26;16.70;65.10
43320;DHT22;28914;48.722;9.332;2023-05-24T05:31:46;16.60;64.90
43320;DHT22;28914;48.722;9.332;2023-05-24T05:37:05;16.70;65.00
43320;DHT22;28914;48.722;9.332;2023-05-24T05:42:24;16.70;64.80
43320;DHT22;28914;48.722;9.332;2023-05-24T05:47:43;16.70;64.80
43320;DHT22;28914;48.722;9.332;2023-05-24T05:53:02;16.80;64.60
43320;DHT22;28914;48.722;9.332;2023-05-24T05:58:22;16.80;64.40
43320;DHT22;28914;48.722;9.332;2023-05-24T06:03:41;16.90;64.20
43320;DHT22;28914;48.722;9.332;2023-05-24T06:09:00;16.90;64.00
43320;DHT22;28914;48.722;9.332;2023-05-24T06:14:19;16.90;63.80
43320;DHT22;28914;48.722;9.332;2023-05-24T06:19:43;16.90;64.00
43320;DHT22;28914;48.722;9.332;2023-05-24T06:25:03;17.00;63.40
43320;DHT22;28914;48.722;9.332;2023-05-24T06:30:23;17.10;63.70
43320;DHT22;28914;48.722;9.332;2023-05-24T06:35:43;17.30;63.60
43320;DHT22;28914;48.722;9.332;2023-05-24T06:41:03;17.50;63.60
43320;DHT22;28914;48.722;9.332;2023-05-24T06:46:22;17.80;63.20
43320;DHT22;28914;48.722;9.332;2023-05-24T06:51:41;18.10;63.00
43320;DHT22;28914;48.722;9.332;2023-05-24T06:57:00;18.40;62.40
43320;DHT22;28914;48.722;9.332;2023-05-24T07:02:21;18.70;61.60
43320;DHT22;28914;48.722;9.332;2023-05-24T07:07:45;18.90;60.80
43320;DHT22;28914;48.722;9.332;2023-05-24T07:13:04;19.00;60.40
43320;DHT22;28914;48.722;9.332;2023-05-24T07:18:23;19.00;60.00
43320;DHT22;28914;48.722;9.332;2023-05-24T07:23:42;19.00;59.70
43320;DHT22;28914;48.722;9.332;2023-05-24T07:29:01;19.00;59.40
43320;DHT22;28914;48.722;9.332;2023-05-24T07:34:21;18.90;59.30
43320;DHT22;28914;48.722;9.332;2023-05-24T07:39:40;18.70;59.20
43320;DHT22;28914;48.722;9.332;2023-05-24T07:44:59;18.60;59.40
43320;DHT22;28914;48.722;9.332;2023-05-24T07:50:19;18.50;59.80
43320;DHT22;28914;48.722;9.332;2023-05-24T07:55:38;18.40;59.80
43320;DHT22;28914;48.722;9.332;2023-05-24T08:00:57;18.30;60.30
43320;DHT22;28914;48.722;9.332;2023-05-24T08:06:16;18.40;60.60
43320;DHT22;28914;48.722;9.332;2023-05-24T08:11:36;18.50;60.30
43320;DHT22;28914;48.722;9.332;2023-05-24T08:16:56;18.60;60.10
43320;DHT22;28914;48.722;9.332;2023-05-24T08:22:15;18.70;60.20
43320;DHT22;28914;48.722;9.332;2023-05-24T08:27:34;18.80;60.00
43320;DHT22;28914;48.722;9.332;2023-05-24T08:32:54;18.80;59.40
43320;DHT22;28914;48.722;9.332;2023-05-24T08:38:13;18.80;58.80
43320;DHT22;28914;48.722;9.332;2023-05-24T08:43:32;18.80;59.30
43320;DHT22;28914;48.722;9.332;2023-05-24T08:48:51;18.80;59.50
43320;DHT22;28914;48.722;9.332;2023-05-24T08:54:11;19.00;59.10
43320;DHT22;28914;48.722;9.332;2023-05-24T08:59:32;19.10;59.00
43320;DHT22;28914;48.722;9.332;2023-05-24T09:04:52;19.50;59.20
43320;DHT22;28914;48.722;9.332;2023-05-24T09:10:11;20.00;58.90
43320;DHT22;28914;48.722;9.332;2023-05-24T09:15:30;20.30;58.30
43320;DHT22;28914;48.722;9.332;2023-05-24T09:20:50;20.70;57.00
43320;DHT22;28914;48.722;9.332;2023-05-24T09:26:09;20.80;56.40
43320;DHT22;28914;48.722;9.332;2023-05-24T09:31:33;20.80;56.00
43320;DHT22;28914;48.722;9.332;2023-05-24T09:36:52;20.80;55.50
43320;DHT22;28914;48.722;9.332;2023-05-24T09:42:17;20.70;55.70
43320;DHT22;28914;48.722;9.332;2023-05-24T09:47:40;20.70;55.10
43320;DHT22;28914;48.722;9.332;2023-05-24T09:53:01;20.60;55.50
43320;DHT22;28914;48.722;9.332;2023-05-24T09:58:21;20.60;55.60
43320;DHT22;28914;48.722;9.332;2023-05-24T10:03:53;20.60;55.30
43320;DHT22;28914;48.722;9.332;2023-05-24T10:09:13;20.70;55.20
43320;DHT22;28914;48.722;9.332;2023-05-24T10:14:35;20.70;55.20
43320;DHT22;28914;48.722;9.332;2023-05-24T10:19:54;20.60;54.80
43320;DHT22;28914;48.722;9.332;2023-05-24T10:25:22;20.60;54.80
43320;DHT22;28914;48.722;9.332;2023-05-24T10:30:49;20.50;54.60
43320;DHT22;28914;48.722;9.332;2023-05-24T10:36:12;20.40;54.60
43320;DHT22;28914;48.722;9.332;2023-05-24T10:41:38;20.30;54.80
43320;DHT22;28914;48.722;9.332;2023-05-24T10:47:10;20.10;54.70
43320;DHT22;28914;48.722;9.332;2023-05-24T10:52:34;20.00;55.20
43320;DHT22;28914;48.722;9.332;2023-05-24T10:57:54;19.80;55.50
43320;DHT22;28914;48.722;9.332;2023-05-24T11:03:13;19.60;55.60
43320;DHT22;28914;48.722;9.332;2023-05-24T11:08:42;19.50;56.00
43320;DHT22;28914;48.722;9.332;2023-05-24T11:14:05;19.40;56.10
43320;DHT22;28914;48.722;9.332;2023-05-24T11:19:30;19.40;56.30
43320;DHT22;28914;48.722;9.332;2023-05-24T11:24:52;19.30;56.00
43320;DHT22;28914;48.722;9.332;2023-05-24T11:30:11;19.20;56.20
43320;DHT22;28914;48.722;9.332;2023-05-24T11:35:31;19.20;56.40
43320;DHT22;28914;48.722;9.332;2023-05-24T11:40:50;19.20;56.50
43320;DHT22;28914;48.722;9.332;2023-05-24T11:46:10;19.30;56.70
43320;DHT22;28914;48.722;9.332;2023-05-24T11:51:31;19.40;56.50
43320;DHT22;28914;48.722;9.332;2023-05-24T11:56:52;19.60;56.40
43320;DHT22;28914;48.722;9.332;2023-05-24T12:02:12;19.90;55.90
43320;DHT22;28914;48.722;9.332;2023-05-24T12:07:31;20.20;55.70
43320;DHT22;28914;48.722;9.332;2023-05-24T12:12:51;20.60;55.20
43320;DHT22;28914;48.722;9.332;2023-05-24T12:18:20;21.10;54.90
43320;DHT22;28914;48.722;9.332;2023-05-24T12:23:39;21.60;53.50
43320;DHT22;28914;48.722;9.332;2023-05-24T12:28:58;21.90;52.40
43320;DHT22;28914;48.722;9.332;2023-05-24T12:34:19;22.10;52.10
43320;DHT22;28914;48.722;9.332;2023-05-24T12:39:39;22.40;51.10
43320;DHT22;28914;48.722;9.332;2023-05-24T12:45:00;22.50;51.10
43320;DHT22;28914;48.722;9.332;2023-05-24T12:50:21;22.70;50.60
43320;DHT22;28914;48.722;9.332;2023-05-24T12:55:41;22.80;50.20
43320;DHT22;28914;48.722;9.332;2023-05-24T13:01:00;22.90;49.50
43320;DHT22;28914;48.722;9.332;2023-05-24T13:06:20;23.00;49.20
43320;DHT22;28914;48.722;9.332;2023-05-24T13:11:39;23.00;47.10
43320;DHT22;28914;48.722;9.332;2023-05-24T13:16:59;22.80;47.20
43320;DHT22;28914;48.722;9.332;2023-05-24T13:22:19;22.60;47.20
43320;DHT22;28914;48.722;9.332;2023-05-24T13:27:38;22.40;43.20
43320;DHT22;28914;48.722;9.332;2023-05-24T13:32:59;22.20;45.60
43320;DHT22;28914;48.722;9.332;2023-05-24T13:38:18;22.00;45.50
43320;DHT22;28914;48.722;9.332;2023-05-24T13:43:37;21.80;44.50
43320;DHT22;28914;48.722;9.332;2023-05-24T13:48:56;21.70;42.90
43320;DHT22;28914;48.722;9.332;2023-05-24T13:54:16;21.50;43.20
43320;DHT22;28914;48.722;9.332;2023-05-24T13:59:35;21.30;43.80
43320;DHT22;28914;48.722;9.332;2023-05-24T14:04:54;21.10;44.60
43320;DHT22;28914;48.722;9.332;2023-05-24T14:10:13;21.00;45.50
43320;DHT22;28914;48.722;9.332;2023-05-24T14:15:33;20.90;46.10
43320;DHT22;28914;48.722;9.332;2023-05-24T14:20:52;20.90;46.50
43320;DHT22;28914;48.722;9.332;2023-05-24T14:26:11;21.00;46.70
43320;DHT22;28914;48.722;9.332;2023-05-24T14:31:30;21.00;47.40
43320;DHT22;28914;48.722;9.332;2023-05-24T14:36:52;21.00;47.50
43320;DHT22;28914;48.722;9.332;2023-05-24T14:42:11;21.20;47.40
43320;DHT22;28914;48.722;9.332;2023-05-24T14:47:30;21.30;47.10
43320;DHT22;28914;48.722;9.332;2023-05-24T14:52:50;21.40;46.40
43320;DHT22;28914;48.722;9.332;2023-05-24T14:58:10;21.40;46.00
43320;DHT22;28914;48.722;9.332;2023-05-24T15:03:30;21.30;45.80
43320;DHT22;28914;48.722;9.332;2023-05-24T15:08:49;21.30;46.00
43320;DHT22;28914;48.722;9.332;2023-05-24T15:14:09;21.20;45.90
43320;DHT22;28914;48.722;9.332;2023-05-24T15:19:29;21.20;46.40
43320;DHT22;28914;48.722;9.332;2023-05-24T15:24:48;21.10;46.50
43320;DHT22;28914;48.722;9.332;2023-05-24T15:30:07;21.10;46.30
43320;DHT22;28914;48.722;9.332;2023-05-24T15:35:27;21.10;46.60
43320;DHT22;28914;48.722;9.332;2023-05-24T15:40:46;21.10;46.30
43320;DHT22;28914;48.722;9.332;2023-05-24T15:46:05;21.10;45.40
43320;DHT22;28914;48.722;9.332;2023-05-24T15:51:24;20.90;45.30
43320;DHT22;28914;48.722;9.332;2023-05-24T15:56:43;20.80;44.80
43320;DHT22;28914;48.722;9.332;2023-05-24T16:02:06;20.60;45.30
43320;DHT22;28914;48.722;9.332;2023-05-24T16:07:25;20.50;45.60
43320;DHT22;28914;48.722;9.332;2023-05-24T16:12:44;20.20;45.90
43320;DHT22;28914;48.722;9.332;2023-05-24T16:18:04;20.10;46.30
43320;DHT22;28914;48.722;9.332;2023-05-24T16:23:23;20.00;46.70
43320;DHT22;28914;48.722;9.332;2023-05-24T16:28:42;19.90;47.00
43320;DHT22;28914;48.722;9.332;2023-05-24T16:34:01;20.00;47.30
43320;DHT22;28914;48.722;9.332;2023-05-24T16:39:21;20.10;47.20
43320;DHT22;28914;48.722;9.332;2023-05-24T16:44:40;20.30;48.00
43320;DHT22;28914;48.722;9.332;2023-05-24T16:49:59;20.50;47.50
43320;DHT22;28914;48.722;9.332;2023-05-24T16:55:18;20.60;46.80
43320;DHT22;28914;48.722;9.332;2023-05-24T17:00:38;20.70;46.60
43320;DHT22;28914;48.722;9.332;2023-05-24T17:05:58;20.70;47.00
43320;DHT22;28914;48.722;9.332;2023-05-24T17:11:23;20.60;47.10
43320;DHT22;28914;48.722;9.332;2023-05-24T17:16:42;20.50;47.30
43320;DHT22;28914;48.722;9.332;2023-05-24T17:22:01;20.30;46.70
43320;DHT22;28914;48.722;9.332;2023-05-24T17:27:23;20.10;46.50
43320;DHT22;28914;48.722;9.332;2023-05-24T17:32:43;19.90;46.70
43320;DHT22;28914;48.722;9.332;2023-05-24T17:38:02;19.80;46.70
43320;DHT22;28914;48.722;9.332;2023-05-24T17:43:22;19.60;47.20
43320;DHT22;28914;48.722;9.332;2023-05-24T17:48:42;19.50;47.50
43320;DHT22;28914;48.722;9.332;2023-05-24T17:54:01;19.40;47.60
43320;DHT22;28914;48.722;9.332;2023-05-24T17:59:20;19.30;47.90
43320;DHT22;28914;48.722;9.332;2023-05-24T18:04:39;19.20;48.30
43320;DHT22;28914;48.722;9.332;2023-05-24T18:09:59;19.00;48.40
43320;DHT22;28914;48.722;9.332;2023-05-24T18:15:19;18.90;48.60
43320;DHT22;28914;48.722;9.332;2023-05-24T18:20:39;18.80;48.90
43320;DHT22;28914;48.722;9.332;2023-05-24T18:25:58;18.70;49.20
43320;DHT22;28914;48.722;9.332;2023-05-24T18:31:17;18.50;49.40
43320;DHT22;28914;48.722;9.332;2023-05-24T18:36:38;18.40;49.60
43320;DHT22;28914;48.722;9.332;2023-05-24T18:41:57;18.20;49.70
43320;DHT22;28914;48.722;9.332;2023-05-24T18:47:16;18.10;49.80
43320;DHT22;28914;48.722;9.332;2023-05-24T18:52:35;17.90;50.00
43320;DHT22;28914;48.722;9.332;2023-05-24T18:57:55;17.80;50.90
43320;DHT22;28914;48.722;9.332;2023-05-24T19:03:13;17.60;51.10
43320;DHT22;28914;48.722;9.332;2023-05-24T19:08:33;17.40;50.60
43320;DHT22;28914;48.722;9.332;2023-05-24T19:13:52;17.30;50.80
43320;DHT22;28914;48.722;9.332;2023-05-24T19:19:11;17.20;51.30
43320;DHT22;28914;48.722;9.332;2023-05-24T19:24:30;17.00;51.50
43320;DHT22;28914;48.722;9.332;2023-05-24T19:29:50;16.80;51.60
43320;DHT22;28914;48.722;9.332;2023-05-24T19:35:09;16.60;51.90
43320;DHT22;28914;48.722;9.332;2023-05-24T19:40:32;16.50;52.30
43320;DHT22;28914;48.722;9.332;2023-05-24T19:45:51;16.40;52.40
43320;DHT22;28914;48.722;9.332;2023-05-24T19:51:11;16.30;52.60
43320;DHT22;28914;48.722;9.332;2023-05-24T19:56:33;16.20;52.40
43320;DHT22;28914;48.722;9.332;2023-05-24T20:01:52;16.00;52.50
43320;DHT22;28914;48.722;9.332;2023-05-24T20:07:11;15.90;52.00
43320;DHT22;28914;48.722;9.332;2023-05-24T20:12:30;15.80;52.30
43320;DHT22;28914;48.722;9.332;2023-05-24T20:17:51;15.60;52.30
43320;DHT22;28914;48.722;9.332;2023-05-24T20:23:10;15.50;52.70
43320;DHT22;28914;48.722;9.332;2023-05-24T20:28:29;15.30;52.80
43320;DHT22;28914;48.722;9.332;2023-05-24T20:33:49;15.20;53.40
43320;DHT22;28914;48.722;9.332;2023-05-24T20:39:09;15.10;53.80
43320;DHT22;28914;48.722;9.332;2023-05-24T20:44:28;15.00;54.20
43320;DHT22;28914;48.722;9.332;2023-05-24T20:49:47;15.00;54.50
43320;DHT22;28914;48.722;9.332;2023-05-24T20:55:07;15.00;54.60
43320;DHT22;28914;48.722;9.332;2023-05-24T21:00:26;15.00;54.60
43320;DHT22;28914;48.722;9.332;2023-05-24T21:05:45;15.00;54.70
43320;DHT22;28914;48.722;9.332;2023-05-24T21:11:04;15.10;54.90
43320;DHT22;28914;48.722;9.332;2023-05-24T21:16:24;15.10;55.20
43320;DHT22;28914;48.722;9.332;2023-05-24T21:21:43;15.10;55.00
43320;DHT22;28914;48.722;9.332;2023-05-24T21:27:03;15.20;55.10
43320;DHT22;28914;48.722;9.332;2023-05-24T21:32:22;15.20;55.20
43320;DHT22;28914;48.722;9.332;2023-05-24T21:37:41;15.30;55.50
43320;DHT22;28914;48.722;9.332;2023-05-24T21:43:00;15.30;55.40
43320;DHT22;28914;48.722;9.332;2023-05-24T21:48:19;15.40;55.30
43320;DHT22;28914;48.722;9.332;2023-05-24T21:53:39;15.40;55.30
43320;DHT22;28914;48.722;9.332;2023-05-24T21:58:58;15.40;55.60
43320;DHT22;28914;48.722;9.332;2023-05-24T22:04:20;15.40;55.40
43320;DHT22;28914;48.722;9.332;2023-05-24T22:09:39;15.40;55.10
43320;DHT22;28914;48.722;9.332;2023-05-24T22:14:59;15.40;55.20
43320;DHT22;28914;48.722;9.332;2023-05-24T22:20:19;15.40;55.40
43320;DHT22;28914;48.722;9.332;2023-05-24T22:25:38;15.40;55.70
43320;DHT22;28914;48.722;9.332;2023-05-24T22:30:57;15.40;55.90
43320;DHT22;28914;48.722;9.332;2023-05-24T22:36:16;15.40;56.00
43320;DHT22;28914;48.722;9.332;2023-05-24T22:41:36;15.40;56.20
43320;DHT22;28914;48.722;9.332;2023-05-24T22:46:55;15.40;55.90
43320;DHT22;28914;48.722;9.332;2023-05-24T22:52:14;15.30;55.60
43320;DHT22;28914;48.722;9.332;2023-05-24T22:57:34;15.20;55.60
43320;DHT22;28914;48.722;9.332;2023-05-24T23:02:53;15.00;55.70
43320;DHT22;28914;48.722;9.332;2023-05-24T23:08:13;14.80;55.80
43320;DHT22;28914;48.722;9.332;2023-05-24T23:13:32;14.60;56.20
43320;DHT22;28914;48.722;9.332;2023-05-24T23:18:54;14.40;56.20
43320;DHT22;28914;48.722;9.332;2023-05-24T23:24:14;14.30;56.90
43320;DHT22;28914;48.722;9.332;2023-05-24T23:29:33;14.10;56.70
43320;DHT22;28914;48.722;9.332;2023-05-24T23:34:52;13.90;56.90
43320;DHT22;28914;48.722;9.332;2023-05-24T23:40:12;13.70;57.00
43320;DHT22;28914;48.722;9.332;2023-05-24T23:45:31;13.60;57.30
43320;DHT22;28914;48.722;9.332;2023-05-24T23:50:50;13.40;57.50
43320;DHT22;28914;48.722;9.332;2023-05-24T23:56:09;13.30;57.70
